createdAt,value
2023-06-14T00:02:04.582Z,95329.63
2023-06-14T00:04:33.192Z,95331.77
2023-06-14T00:07:01.493Z,95333.27
2023-06-14T00:09:29.488Z,95331.18
2023-06-14T00:11:57.478Z,95333.23
2023-06-14T00:14:25.455Z,95337.26
2023-06-14T00:17:00.028Z,95336.80
2023-06-14T00:19:28.480Z,95335.58
2023-06-14T00:21:56.545Z,95331.36
2023-06-14T00:24:24.643Z,95338.41
2023-06-14T00:26:53.078Z,95337.55
2023-06-14T00:29:21.093Z,95338.90
2023-06-14T00:31:49.166Z,95335.69
2023-06-14T00:34:17.322Z,95338.52
2023-06-14T00:36:45.320Z,95341.33
2023-06-14T00:39:16.182Z,95339.02
2023-06-14T00:41:44.236Z,95334.57
2023-06-14T00:44:12.916Z,95334.23
2023-06-14T00:46:42.915Z,95330.54
2023-06-14T00:49:11.986Z,95331.81
2023-06-14T00:51:40.616Z,95333.43
2023-06-14T00:54:08.994Z,95329.98
2023-06-14T00:56:38.732Z,95326.66
2023-06-14T00:59:07.253Z,95321.58
2023-06-14T01:01:35.313Z,95323.48
2023-06-14T01:04:04.630Z,95319.63
2023-06-14T01:06:52.956Z,95320.23
2023-06-14T01:09:23.792Z,95317.73
2023-06-14T01:11:55.864Z,95318.07
2023-06-14T01:14:24.957Z,95317.42
2023-06-14T01:16:56.577Z,95318.02
2023-06-14T01:19:27.093Z,95321.28
2023-06-14T01:21:56.633Z,95323.91
2023-06-14T01:24:26.886Z,95326.13
2023-06-14T01:26:57.272Z,95329.92
2023-06-14T01:29:26.657Z,95332.98
2023-06-14T01:31:55.506Z,95331.83
2023-06-14T01:34:23.541Z,95331.23
2023-06-14T01:36:56.093Z,95334.52
2023-06-14T01:39:24.712Z,95332.34
2023-06-14T01:41:53.268Z,95332.21
2023-06-14T01:44:21.921Z,95335.50
2023-06-14T01:46:50.523Z,95334.11
2023-06-14T01:49:18.510Z,95333.63
2023-06-14T01:51:46.487Z,95335.15
2023-06-14T01:54:14.455Z,95337.64
2023-06-14T01:56:42.726Z,95340.09
2023-06-14T01:59:10.774Z,95337.85
2023-06-14T02:01:39.389Z,95338.64
2023-06-14T02:04:07.409Z,95340.59
2023-06-14T02:06:35.708Z,95343.35
2023-06-14T02:09:04.748Z,95344.10
2023-06-14T02:11:32.656Z,95342.21
2023-06-14T02:14:01.380Z,95346.09
2023-06-14T02:16:30.820Z,95353.05
2023-06-14T02:18:59.187Z,95347.91
2023-06-14T02:21:27.169Z,95348.20
2023-06-14T02:23:55.490Z,95351.06
2023-06-14T02:26:30.100Z,95353.27
2023-06-14T02:28:58.177Z,95353.75
2023-06-14T02:31:26.511Z,95359.11
2023-06-14T02:33:54.550Z,95362.45
2023-06-14T02:36:22.590Z,95361.48
2023-06-14T02:38:50.647Z,95365.46
2023-06-14T02:41:18.507Z,95362.99
2023-06-14T02:43:46.610Z,95365.80
2023-06-14T02:46:14.585Z,95366.41
2023-06-14T02:48:43.217Z,95365.79
2023-06-14T02:51:11.278Z,95365.42
2023-06-14T02:53:39.258Z,95364.88
2023-06-14T02:56:07.721Z,95368.21
2023-06-14T02:58:37.350Z,95367.90
2023-06-14T03:01:06.871Z,95368.00
2023-06-14T03:03:35.005Z,95369.64
2023-06-14T03:06:05.324Z,95370.48
2023-06-14T03:08:40.041Z,95372.54
2023-06-14T03:11:12.405Z,95372.60
2023-06-14T03:13:42.004Z,95373.55
2023-06-14T03:16:10.234Z,95375.19
2023-06-14T03:18:40.238Z,95372.84
2023-06-14T03:21:10.137Z,95373.48
2023-06-14T03:23:39.232Z,95373.98
2023-06-14T03:26:07.308Z,95378.35
2023-06-14T03:28:35.751Z,95375.27
2023-06-14T03:31:04.072Z,95374.48
2023-06-14T03:33:33.605Z,95375.16
2023-06-14T03:36:02.918Z,95372.30
2023-06-14T03:38:31.123Z,95374.79
2023-06-14T03:40:59.185Z,95376.88
2023-06-14T03:47:28.792Z,95371.95
2023-06-14T03:49:57.177Z,95371.25
2023-06-14T03:52:24.149Z,95373.55
2023-06-14T03:57:24.229Z,95373.45
2023-06-14T03:59:51.576Z,95371.67
2023-06-14T04:02:19.174Z,95371.91
2023-06-14T04:04:46.541Z,95375.13
2023-06-14T04:07:14.105Z,95378.14
2023-06-14T04:09:41.705Z,95373.73
2023-06-14T04:12:14.805Z,95371.67
2023-06-14T04:14:41.580Z,95372.06
2023-06-14T04:17:10.891Z,95374.98
2023-06-14T04:19:38.985Z,95375.04
2023-06-14T04:22:06.495Z,95377.98
2023-06-14T04:24:35.429Z,95376.02
2023-06-14T04:27:02.878Z,95375.16
2023-06-14T04:29:31.889Z,95375.59
2023-06-14T04:32:02.797Z,95373.98
2023-06-14T04:34:32.289Z,95370.69
2023-06-14T04:37:00.213Z,95376.43
2023-06-14T04:39:31.680Z,95376.05
2023-06-14T04:42:01.016Z,95380.53
2023-06-14T04:44:32.192Z,95376.25
2023-06-14T04:47:01.461Z,95377.74
2023-06-14T04:49:32.930Z,95381.45
2023-06-14T04:52:01.936Z,95380.23
2023-06-14T04:54:34.367Z,95379.53
2023-06-14T04:57:02.795Z,95374.92
2023-06-14T04:59:33.807Z,95375.80
2023-06-14T05:02:01.168Z,95375.52
2023-06-14T05:04:28.576Z,95373.68
2023-06-14T05:06:55.687Z,95373.73
2023-06-14T05:09:23.158Z,95371.78
2023-06-14T05:11:51.227Z,95374.46
2023-06-14T05:14:18.937Z,95372.44
2023-06-14T05:16:46.655Z,95373.90
2023-06-14T05:19:13.393Z,95368.39
2023-06-14T05:21:43.492Z,95373.42
2023-06-14T05:24:11.760Z,95372.73
2023-06-14T05:26:38.603Z,95377.93
2023-06-14T05:29:05.923Z,95378.42
2023-06-14T05:31:33.405Z,95381.55
2023-06-14T05:34:00.578Z,95380.16
2023-06-14T05:36:28.411Z,95385.70
2023-06-14T05:39:00.178Z,95383.56
2023-06-14T05:41:27.812Z,95382.75
2023-06-14T05:43:56.192Z,95385.77
2023-06-14T05:46:25.899Z,95387.91
2023-06-14T05:48:53.488Z,95391.83
2023-06-14T05:51:20.713Z,95391.03
2023-06-14T05:53:48.707Z,95396.15
2023-06-14T05:56:18.344Z,95395.25
2023-06-14T05:58:46.304Z,95397.32
2023-06-14T06:01:13.855Z,95395.95
2023-06-14T06:03:41.824Z,95398.67
2023-06-14T06:06:09.274Z,95399.75
2023-06-14T06:08:36.276Z,95400.77
2023-06-14T06:11:03.065Z,95399.83
2023-06-14T06:13:29.888Z,95399.56
2023-06-14T06:15:56.771Z,95401.94
2023-06-14T06:18:23.755Z,95401.95
2023-06-14T06:20:50.625Z,95399.30
2023-06-14T06:23:17.465Z,95407.54
2023-06-14T06:25:44.423Z,95408.08
2023-06-14T06:28:11.501Z,95404.04
2023-06-14T06:30:38.823Z,95410.05
2023-06-14T06:33:06.070Z,95408.65
2023-06-14T06:35:33.639Z,95408.91
2023-06-14T06:38:01.344Z,95405.70
2023-06-14T06:40:28.292Z,95405.96
2023-06-14T06:42:55.602Z,95404.48
2023-06-14T06:45:25.451Z,95410.05
2023-06-14T06:47:52.834Z,95408.45
2023-06-14T06:50:28.943Z,95410.53
2023-06-14T06:52:55.931Z,95414.82
2023-06-14T06:55:23.077Z,95413.59
2023-06-14T06:57:50.493Z,95414.87
2023-06-14T07:00:18.525Z,95411.05
2023-06-14T07:02:46.478Z,95411.59
2023-06-14T07:05:14.560Z,95415.59
2023-06-14T07:07:41.987Z,95411.15
2023-06-14T07:10:08.816Z,95410.80
2023-06-14T07:12:39.709Z,95412.64
2023-06-14T07:15:10.171Z,95409.48
2023-06-14T07:17:37.667Z,95413.41
2023-06-14T07:20:08.360Z,95411.32
2023-06-14T07:22:35.087Z,95411.80
2023-06-14T07:25:02.092Z,95411.35
2023-06-14T07:27:28.862Z,95413.45
2023-06-14T07:29:56.064Z,95411.80
2023-06-14T07:32:22.810Z,95413.05
2023-06-14T07:34:49.846Z,95415.26
2023-06-14T07:37:16.746Z,95416.91
2023-06-14T07:39:43.619Z,95421.60
2023-06-14T07:42:10.752Z,95416.71
2023-06-14T07:44:37.604Z,95416.94
2023-06-14T07:47:05.220Z,95413.39
2023-06-14T07:49:32.120Z,95408.39
2023-06-14T07:51:59.411Z,95409.46
2023-06-14T07:54:27.176Z,95414.85
2023-06-14T07:56:54.258Z,95415.42
2023-06-14T07:59:21.086Z,95416.15
2023-06-14T08:01:48.561Z,95421.02
2023-06-14T08:04:15.870Z,95421.16
2023-06-14T08:06:46.336Z,95422.57
2023-06-14T08:09:13.811Z,95429.38
2023-06-14T08:11:40.620Z,95422.98
2023-06-14T08:14:07.422Z,95421.59
2023-06-14T08:16:34.169Z,95425.91
2023-06-14T08:19:01.568Z,95424.02
2023-06-14T08:21:29.574Z,95427.21
2023-06-14T08:23:58.496Z,95429.33
2023-06-14T08:26:29.688Z,95425.33
2023-06-14T08:28:56.970Z,95424.05
2023-06-14T08:31:25.211Z,95423.73
2023-06-14T08:33:52.096Z,95418.63
2023-06-14T08:36:19.307Z,95421.69
2023-06-14T08:38:46.519Z,95418.20
2023-06-14T08:41:21.622Z,95420.39
2023-06-14T08:43:48.876Z,95424.75
2023-06-14T08:46:21.081Z,95428.67
2023-06-14T08:48:50.374Z,95436.59
2023-06-14T08:51:23.477Z,95437.44
2023-06-14T08:53:57.877Z,95439.30
2023-06-14T08:56:32.114Z,95438.04
2023-06-14T08:59:03.325Z,95436.58
2023-06-14T09:01:34.806Z,95432.72
2023-06-14T09:04:02.775Z,95435.70
2023-06-14T09:06:34.708Z,95435.13
2023-06-14T09:09:04.697Z,95435.69
2023-06-14T09:11:31.490Z,95435.34
2023-06-14T09:13:58.427Z,95436.14
2023-06-14T09:16:26.779Z,95435.63
2023-06-14T09:18:54.873Z,95437.98
2023-06-14T09:21:22.189Z,95439.48
2023-06-14T09:23:49.076Z,95440.47
2023-06-14T09:26:18.478Z,95444.54
2023-06-14T09:28:47.393Z,95443.92
2023-06-14T09:31:15.999Z,95445.13
2023-06-14T09:33:48.906Z,95444.52
2023-06-14T09:36:17.953Z,95446.75
2023-06-14T09:38:57.629Z,95449.69
2023-06-14T09:41:38.810Z,95447.92
2023-06-14T09:44:09.799Z,95453.71
2023-06-14T09:46:39.959Z,95453.42
2023-06-14T09:49:07.990Z,95452.89
2023-06-14T09:51:37.659Z,95451.55
2023-06-14T09:54:05.968Z,95447.68
2023-06-14T09:56:37.524Z,95445.54
2023-06-14T09:59:10.352Z,95451.52
2023-06-14T10:01:43.533Z,95446.88
2023-06-14T10:04:12.036Z,95446.89
2023-06-14T10:06:46.119Z,95449.73
2023-06-14T10:09:14.794Z,95450.95
2023-06-14T10:11:44.588Z,95456.16
2023-06-14T10:14:13.394Z,95454.16
2023-06-14T10:16:52.977Z,95453.04
2023-06-14T10:19:26.161Z,95451.13
2023-06-14T10:22:18.992Z,95451.92
2023-06-14T10:24:47.926Z,95445.45
2023-06-14T10:27:17.640Z,95446.79
2023-06-14T10:29:53.661Z,95443.84
2023-06-14T10:32:25.644Z,95447.05
2023-06-14T10:35:01.477Z,95449.34
2023-06-14T10:37:29.136Z,95445.76
2023-06-14T10:39:56.411Z,95450.09
2023-06-14T10:42:29.423Z,95449.50
2023-06-14T10:45:01.148Z,95450.83
2023-06-14T10:47:32.946Z,95441.48
2023-06-14T10:50:03.112Z,95450.02
2023-06-14T10:52:35.881Z,95452.21
2023-06-14T10:55:18.514Z,95451.89
2023-06-14T10:57:56.364Z,95452.27
2023-06-14T11:00:27.170Z,95455.23
2023-06-14T11:03:21.716Z,95453.48
2023-06-14T11:05:48.418Z,95448.50
2023-06-14T11:08:53.098Z,95445.66
2023-06-14T11:11:24.047Z,95444.36
2023-06-14T11:13:52.750Z,95439.36
2023-06-14T11:16:19.663Z,95433.83
2023-06-14T11:18:46.974Z,95437.77
2023-06-14T11:21:21.794Z,95433.13
2023-06-14T11:23:52.833Z,95433.73
2023-06-14T11:26:27.478Z,95433.45
2023-06-14T11:29:01.817Z,95432.41
2023-06-14T11:31:30.450Z,95431.70
2023-06-14T11:33:59.678Z,95432.64
2023-06-14T11:36:31.891Z,95427.42
2023-06-14T11:39:04.024Z,95429.54
2023-06-14T11:41:38.059Z,95425.85
2023-06-14T11:44:06.544Z,95425.11
2023-06-14T11:46:34.092Z,95428.42
2023-06-14T11:49:03.669Z,95430.08
2023-06-14T11:51:34.604Z,95427.67
2023-06-14T11:54:03.616Z,95428.42
2023-06-14T11:56:32.608Z,95429.88
2023-06-14T11:58:59.767Z,95428.75
2023-06-14T12:01:27.071Z,95426.76
2023-06-14T12:03:55.811Z,95430.39
2023-06-14T12:06:33.936Z,95428.48
2023-06-14T12:09:05.339Z,95425.38
2023-06-14T12:11:36.849Z,95426.04
2023-06-14T12:14:08.645Z,95427.64
2023-06-14T12:16:38.651Z,95426.50
2023-06-14T12:19:17.836Z,95427.71
2023-06-14T12:21:51.522Z,95424.74
2023-06-14T12:24:18.840Z,95427.64
2023-06-14T12:26:47.316Z,95421.96
2023-06-14T12:29:14.729Z,95421.31
2023-06-14T12:31:42.188Z,95421.20
2023-06-14T12:34:09.467Z,95417.89
2023-06-14T12:36:42.142Z,95417.44
2023-06-14T12:39:09.553Z,95417.67
2023-06-14T12:41:42.242Z,95422.30
2023-06-14T12:44:09.114Z,95419.13
2023-06-14T12:46:37.312Z,95420.50
2023-06-14T12:49:04.309Z,95415.30
2023-06-14T12:51:31.492Z,95420.65
2023-06-14T12:53:58.602Z,95416.67
2023-06-14T12:56:26.704Z,95417.39
2023-06-14T12:58:53.953Z,95416.95
2023-06-14T13:01:21.756Z,95417.16
2023-06-14T13:03:50.475Z,95417.54
2023-06-14T13:06:17.899Z,95418.60
2023-06-14T13:08:44.704Z,95418.44
2023-06-14T13:11:11.879Z,95419.65
2023-06-14T13:13:39.959Z,95417.58
2023-06-14T13:16:07.247Z,95419.91
2023-06-14T13:18:34.981Z,95418.91
2023-06-14T13:21:01.818Z,95422.27
2023-06-14T13:23:28.925Z,95417.29
2023-06-14T13:25:55.849Z,95414.38
2023-06-14T13:28:22.676Z,95413.73
2023-06-14T13:30:49.418Z,95415.58
2023-06-14T13:33:16.299Z,95417.41
2023-06-14T13:35:43.233Z,95414.20
2023-06-14T13:38:11.577Z,95415.02
2023-06-14T13:40:40.207Z,95413.92
2023-06-14T13:43:07.230Z,95418.05
2023-06-14T13:45:35.800Z,95417.45
2023-06-14T13:48:02.829Z,95422.56
2023-06-14T13:50:30.200Z,95421.66
2023-06-14T13:52:57.051Z,95422.34
2023-06-14T13:55:24.152Z,95426.64
2023-06-14T13:57:51.658Z,95428.08
2023-06-14T14:00:23.020Z,95429.69
2023-06-14T14:02:51.479Z,95431.73
2023-06-14T14:05:20.946Z,95430.02
2023-06-14T14:07:47.583Z,95426.66
2023-06-14T14:10:15.196Z,95425.98
2023-06-14T14:12:42.271Z,95423.33
2023-06-14T14:15:13.299Z,95432.08
2023-06-14T14:17:40.379Z,95431.87
2023-06-14T14:20:08.343Z,95432.11
2023-06-14T14:22:35.537Z,95424.09
2023-06-14T14:25:02.427Z,95423.56
2023-06-14T14:27:29.332Z,95418.86
2023-06-14T14:29:55.995Z,95417.73
2023-06-14T14:32:22.725Z,95419.20
2023-06-14T14:34:49.732Z,95418.73
2023-06-14T14:37:16.915Z,95420.62
2023-06-14T14:39:46.327Z,95422.16
2023-06-14T14:42:13.752Z,95424.29
2023-06-14T14:44:40.884Z,95422.22
2023-06-14T14:47:08.051Z,95425.50
2023-06-14T14:49:35.340Z,95423.02
2023-06-14T14:52:14.711Z,95423.11
2023-06-14T14:54:50.603Z,95425.63
2023-06-14T14:57:17.737Z,95426.70
2023-06-14T14:59:44.568Z,95425.48
2023-06-14T15:02:11.793Z,95423.25
2023-06-14T15:04:38.680Z,95424.21
2023-06-14T15:07:06.987Z,95422.51
2023-06-14T15:09:33.891Z,95421.38
2023-06-14T15:12:00.855Z,95422.35
2023-06-14T15:14:27.794Z,95417.02
2023-06-14T15:16:55.171Z,95414.11
2023-06-14T15:19:22.590Z,95409.06
2023-06-14T15:21:49.540Z,95414.06
2023-06-14T15:24:22.031Z,95418.28
2023-06-14T15:26:54.325Z,95417.89
2023-06-14T15:29:21.280Z,95412.73
2023-06-14T15:31:49.475Z,95411.56
2023-06-14T15:34:16.452Z,95413.08
2023-06-14T15:36:43.135Z,95409.49
2023-06-14T15:39:10.175Z,95413.21
2023-06-14T15:41:36.919Z,95417.13
2023-06-14T15:44:04.439Z,95418.89
2023-06-14T15:46:31.313Z,95419.55
2023-06-14T15:48:58.456Z,95416.73
2023-06-14T15:51:25.549Z,95416.14
2023-06-14T15:53:53.063Z,95417.91
2023-06-14T15:56:19.875Z,95423.03
2023-06-14T15:58:46.553Z,95426.63
2023-06-14T16:01:13.280Z,95427.61
2023-06-14T16:03:40.091Z,95429.54
2023-06-14T16:06:08.138Z,95425.86
2023-06-14T16:08:41.020Z,95421.16
2023-06-14T16:11:08.681Z,95414.80
2023-06-14T16:13:35.378Z,95413.59
2023-06-14T16:16:02.254Z,95419.95
2023-06-14T16:18:30.052Z,95419.67
2023-06-14T16:20:57.349Z,95421.55
2023-06-14T16:23:24.135Z,95423.13
2023-06-14T16:25:51.052Z,95424.48
2023-06-14T16:28:18.410Z,95429.73
2023-06-14T16:30:45.343Z,95430.48
2023-06-14T16:33:12.318Z,95431.40
2023-06-14T16:35:39.130Z,95426.55
2023-06-14T16:38:05.890Z,95431.38
2023-06-14T16:40:33.650Z,95428.95
2023-06-14T16:43:00.645Z,95434.49
2023-06-14T16:45:27.543Z,95436.63
2023-06-14T16:47:54.262Z,95441.36
2023-06-14T16:50:21.334Z,95442.02
2023-06-14T16:52:48.097Z,95447.11
2023-06-14T16:55:15.336Z,95447.58
2023-06-14T16:57:42.215Z,95451.48
2023-06-14T17:00:09.941Z,95458.27
2023-06-14T17:02:36.803Z,95454.56
2023-06-14T17:05:05.782Z,95456.73
2023-06-14T17:07:32.875Z,95457.00
2023-06-14T17:10:00.222Z,95461.65
2023-06-14T17:12:26.882Z,95466.73
2023-06-14T17:14:54.089Z,95470.65
2023-06-14T17:17:20.956Z,95468.48
2023-06-14T17:19:47.979Z,95471.20
2023-06-14T17:22:14.928Z,95471.09
2023-06-14T17:24:41.937Z,95467.68
2023-06-14T17:27:09.033Z,95469.29
2023-06-14T17:29:35.787Z,95473.23
2023-06-14T17:32:02.831Z,95473.61
2023-06-14T17:34:30.139Z,95479.96
2023-06-14T17:36:57.043Z,95478.09
2023-06-14T17:39:23.812Z,95481.96
2023-06-14T17:41:50.847Z,95479.94
2023-06-14T17:44:18.110Z,95482.87
2023-06-14T17:46:45.317Z,95481.23
2023-06-14T17:49:12.164Z,95481.27
2023-06-14T17:51:38.953Z,95475.48
2023-06-14T17:54:06.077Z,95474.54
2023-06-14T17:56:33.527Z,95481.37
2023-06-14T17:59:00.509Z,95484.61
2023-06-14T18:01:27.560Z,95488.03
2023-06-14T18:03:54.385Z,95491.79
2023-06-14T18:06:21.423Z,95494.02
2023-06-14T18:08:48.650Z,95493.52
2023-06-14T18:11:16.020Z,95495.82
2023-06-14T18:13:43.404Z,95499.23
2023-06-14T18:16:13.393Z,95499.28
2023-06-14T18:18:41.697Z,95496.37
2023-06-14T18:21:09.195Z,95496.46
2023-06-14T18:23:35.930Z,95494.53
2023-06-14T18:26:02.989Z,95492.63
2023-06-14T18:28:30.159Z,95492.14
2023-06-14T18:30:57.497Z,95493.27
2023-06-14T18:33:24.914Z,95495.95
2023-06-14T18:35:51.689Z,95502.16
2023-06-14T18:38:18.889Z,95504.57
2023-06-14T18:40:46.056Z,95510.67
2023-06-14T18:43:12.921Z,95512.95
2023-06-14T18:45:40.477Z,95510.98
2023-06-14T18:48:07.269Z,95507.66
2023-06-14T18:50:35.287Z,95509.17
2023-06-14T18:53:02.010Z,95517.27
2023-06-14T18:55:29.187Z,95521.67
2023-06-14T18:57:56.108Z,95522.73
2023-06-14T19:00:23.158Z,95522.52
2023-06-14T19:02:50.304Z,95526.66
2023-06-14T19:05:19.101Z,95527.08
2023-06-14T19:07:47.223Z,95532.25
2023-06-14T19:10:13.918Z,95539.94
2023-06-14T19:12:40.875Z,95537.90
2023-06-14T19:15:09.150Z,95545.07
2023-06-14T19:17:36.003Z,95541.02
2023-06-14T19:20:04.917Z,95542.26
2023-06-14T19:22:31.667Z,95544.69
2023-06-14T19:24:58.269Z,95543.08
2023-06-14T19:27:25.604Z,95544.09
2023-06-14T19:29:52.566Z,95548.90
2023-06-14T19:32:19.363Z,95548.83
2023-06-14T19:34:46.709Z,95550.70
2023-06-14T19:37:14.419Z,95552.44
2023-06-14T19:39:43.200Z,95556.05
2023-06-14T19:42:11.676Z,95555.20
2023-06-14T19:44:38.360Z,95555.05
2023-06-14T19:47:06.121Z,95552.97
2023-06-14T19:49:33.435Z,95552.72
2023-06-14T19:52:00.084Z,95552.77
2023-06-14T19:54:26.875Z,95546.80
2023-06-14T19:56:53.871Z,95548.84
2023-06-14T19:59:20.756Z,95549.77
2023-06-14T20:01:47.838Z,95551.11
2023-06-14T20:04:15.018Z,95556.87
2023-06-14T20:06:42.188Z,95555.85
2023-06-14T20:09:13.942Z,95555.64
2023-06-14T20:11:40.995Z,95553.44
2023-06-14T20:14:08.108Z,95559.49
2023-06-14T20:16:35.219Z,95560.80
2023-06-14T20:19:02.463Z,95563.27
2023-06-14T20:21:29.241Z,95564.48
2023-06-14T20:23:56.189Z,95563.78
2023-06-14T20:26:23.303Z,95562.15
2023-06-14T20:28:50.123Z,95566.10
2023-06-14T20:31:19.381Z,95562.46
2023-06-14T20:33:46.054Z,95564.41
2023-06-14T20:36:13.249Z,95561.04
2023-06-14T20:38:40.179Z,95561.05
2023-06-14T20:41:07.526Z,95564.00
2023-06-14T20:43:36.138Z,95564.45
2023-06-14T20:46:07.498Z,95562.60
2023-06-14T20:48:35.223Z,95560.83
2023-06-14T20:51:02.474Z,95560.57
2023-06-14T20:53:29.365Z,95562.90
2023-06-14T20:55:56.212Z,95564.68
2023-06-14T20:58:23.325Z,95560.76
2023-06-14T21:00:51.580Z,95558.41
2023-06-14T21:03:18.517Z,95560.60
2023-06-14T21:05:46.530Z,95559.91
2023-06-14T21:08:13.224Z,95558.73
2023-06-14T21:10:40.117Z,95561.75
2023-06-14T21:13:06.852Z,95565.69
2023-06-14T21:15:34.935Z,95569.64
2023-06-14T21:18:01.986Z,95569.51
2023-06-14T21:20:28.854Z,95571.43
2023-06-14T21:22:56.219Z,95570.13
2023-06-14T21:25:23.335Z,95570.88
2023-06-14T21:27:50.995Z,95569.05
2023-06-14T21:30:18.188Z,95570.79
2023-06-14T21:32:48.110Z,95571.63
2023-06-14T21:35:17.438Z,95571.46
2023-06-14T21:37:44.661Z,95570.15
2023-06-14T21:40:12.232Z,95569.74
2023-06-14T21:42:39.173Z,95567.29
2023-06-14T21:45:09.745Z,95561.38
2023-06-14T21:47:36.914Z,95561.05
2023-06-14T21:50:05.322Z,95560.05
2023-06-14T21:52:32.243Z,95565.73
2023-06-14T21:54:59.160Z,95559.05
2023-06-14T21:57:26.396Z,95557.88
2023-06-14T21:59:54.137Z,95557.70
2023-06-14T22:02:20.939Z,95554.81
2023-06-14T22:04:47.906Z,95554.38
2023-06-14T22:07:19.363Z,95553.70
2023-06-14T22:09:47.020Z,95557.92
2023-06-14T22:12:15.875Z,95556.25
2023-06-14T22:14:46.333Z,95556.14
2023-06-14T22:17:17.154Z,95560.06
2023-06-14T22:19:47.661Z,95558.05
2023-06-14T22:22:14.527Z,95559.45
2023-06-14T22:24:41.436Z,95559.63
2023-06-14T22:27:09.649Z,95552.98
2023-06-14T22:29:36.573Z,95552.48
2023-06-14T22:32:04.503Z,95551.16
2023-06-14T22:34:33.156Z,95552.26
2023-06-14T22:37:05.378Z,95552.10
2023-06-14T22:39:32.412Z,95551.94
2023-06-14T22:42:00.330Z,95548.67
2023-06-14T22:44:30.885Z,95546.88
2023-06-14T22:47:00.480Z,95548.06
2023-06-14T22:49:31.185Z,95549.34
2023-06-14T22:52:01.701Z,95550.05
2023-06-14T22:54:29.445Z,95550.15
2023-06-14T22:56:57.465Z,95544.58
2023-06-14T22:59:27.859Z,95544.33
2023-06-14T23:01:54.623Z,95538.05
2023-06-14T23:04:22.968Z,95537.55
2023-06-14T23:06:52.104Z,95537.58
2023-06-14T23:09:20.226Z,95539.23
2023-06-14T23:11:47.385Z,95537.36
2023-06-14T23:14:14.353Z,95535.63
2023-06-14T23:16:47.981Z,95532.11
2023-06-14T23:19:14.621Z,95532.55
2023-06-14T23:21:41.415Z,95536.29
2023-06-14T23:24:08.350Z,95533.89
2023-06-14T23:26:36.515Z,95528.23
2023-06-14T23:29:04.714Z,95526.09
2023-06-14T23:31:33.910Z,95523.88
2023-06-14T23:34:01.389Z,95525.84
2023-06-14T23:36:31.550Z,95520.17
2023-06-14T23:39:03.809Z,95515.13
2023-06-14T23:41:33.783Z,95513.35
2023-06-14T23:44:04.864Z,95510.58
2023-06-14T23:46:31.708Z,95510.48
2023-06-14T23:49:01.264Z,95505.81
2023-06-14T23:51:31.177Z,95509.83
2023-06-14T23:54:00.337Z,95513.02
2023-06-14T23:56:28.797Z,95514.16
2023-06-14T23:58:55.400Z,95513.95
